FW2567 Weather Reports


time (UTC)temp
C
wind
direction
speed
KPH
gust
KPH
rain 1hr
cm
rain 24hr
cm
rain mn
cm
humidity
%
barometer
mb
20200531071536 10 240 9.7 0.0 0.00 0.33 0.00 75 1014.2
20200531070040 10 239 8.0 0.0 0.00 0.33 0.00 75 1014.6
20200531064534 10 227 6.4 0.0 0.00 0.33 0.00 76 1014.6
20200531063042 10 233 4.8 0.0 0.00 0.33 0.00 76 1014.6
20200531061536 10 234 6.4 0.0 0.00 0.33 0.00 75 1014.6
20200531060029 10 217 6.4 0.0 0.00 0.33 0.00 75 1014.6
20200531054538 10 225 9.7 0.0 0.00 0.33 0.00 75 1014.6
20200531053032 10 227 6.4 0.0 0.00 0.33 0.00 75 1014.6
20200531051536 10 259 6.4 0.0 0.00 0.33 0.00 76 1014.6
20200531050034 10 255 3.2 0.0 0.00 0.33 0.00 75 1014.6
20200531044531 10 239 9.7 0.0 0.00 0.33 0.00 75 1014.6
20200531043031 10 217 11.3 0.0 0.00 0.33 0.00 74 1014.2
20200531041543 10 218 9.7 0.0 0.00 0.33 0.00 73 1014.2
20200531040034 10 238 8.0 0.0 0.00 0.33 0.00 71 1014.2
20200531034534 10 260 9.7 0.0 0.00 0.33 0.00 70 1014.2
20200531033036 10 304 11.3 0.0 0.03 0.33 0.00 70 1013.5
20200531031540 10 4 3.2 0.0 0.03 0.33 0.00 71 1013.1
20200531030044 10 238 4.8 0.0 0.03 0.33 0.00 73 1013.5
20200531024531 10 244 9.7 0.0 0.03 0.33 0.00 75 1013.5
20200531023033 10 242 6.4 0.0 0.00 0.30 0.00 77 1013.5
20200531021545 10 270 9.7 0.0 0.03 0.30 0.00 76 1013.1
20200531020049 10 281 12.9 0.0 0.03 0.30 0.00 75 1013.1
20200531014541 10 266 8.0 0.0 0.05 0.30 0.00 75 1013.1
20200531013037 10 281 12.9 0.0 0.08 0.30 0.00 76 1013.1
20200531011551 10 283 4.8 0.0 0.08 0.28 0.00 78 1012.8
20200531010034 10 305 9.7 0.0 0.10 0.28 0.00 79 1012.1
20200531004531 11 250 6.4 0.0 0.10 0.25 0.00 79 1012.1
20200531003047 11 271 9.7 0.0 0.10 0.23 0.00 78 1012.4
20200531001532 11 359 8.0 0.0 0.10 0.20 0.00 78 1012.1
20200531000033 11 77 6.4 0.0 0.10 0.18 0.00 79 1011.4
20200530234530 11 96 6.4 0.0 0.10 0.15 0.00 77 1011.0
20200530233031 11 46 8.0 0.0 0.13 0.13 0.00 79 1010.7
20200530231543 10 57 11.3 0.0 0.10 0.10 0.00 82 1010.0
20200530230031 11 64 11.3 0.0 0.08 0.08 0.00 77 1011.0
20200530224537 12 305 8.0 0.0 0.05 0.05 0.00 72 1011.4
20200530223054 12 47 8.0 0.0 0.00 0.00 0.00 70 1011.0
20200530221536 13 230 6.4 0.0 0.00 0.00 0.00 69 1010.3
20200530220037 13 166 6.4 0.0 0.00 0.00 0.00 68 1009.3
20200530214539 13 269 16.1 0.0 0.00 0.00 0.00 67 1008.9
20200530213103 14 287 16.1 0.0 0.00 0.00 0.00 66 1008.5
20200530211554 15 284 20.9 0.0 0.00 0.00 0.00 64 1008.5
20200530210033 15 280 19.3 0.0 0.00 0.00 0.00 64 1008.2
20200530204537 16 269 24.1 0.0 0.00 0.00 0.00 62 1007.8
20200530203030 17 264 19.3 0.0 0.00 0.00 0.00 60 1007.8
20200530201535 18 261 16.1 0.0 0.00 0.00 0.00 57 1007.1
20200530200040 20 256 17.7 0.0 0.00 0.00 0.00 54 1006.8
20200530194536 22 245 16.1 0.0 0.00 0.00 0.00 52 1006.4
20200530193028 23 253 16.1 0.0 0.00 0.00 0.00 52 1006.1
20200530191538 25 265 16.1 0.0 0.00 0.00 0.00 52 1005.7
20200530190031 25 258 14.5 0.0 0.00 0.00 0.00 53 1005.7
20200530184532 25 29 1.6 0.0 0.00 0.00 0.00 55 1005.7
20200530183039 24 56 1.6 0.0 0.00 0.00 0.00 56 1005.7
20200530181607 23 78 1.6 0.0 0.00 0.00 0.00 58 1006.1
20200530180047 22 126 1.6 0.0 0.00 0.00 0.00 61 1006.1
20200530174529 21 157 1.6 0.0 0.00 0.00 0.00 64 1006.4
20200530173115 21 234 0.0 0.0 0.00 0.00 0.00 65 1006.8
20200530171601 20 283 3.2 0.0 0.00 0.00 0.00 65 1006.8
20200530170034 20 326 3.2 0.0 0.00 0.00 0.00 65 1007.1
20200530164542 20 352 0.0 0.0 0.00 0.00 0.00 65 1007.5
20200530163046 21 16 3.2 0.0 0.00 0.00 0.00 63 1007.5
20200530161536 21 67 3.2 0.0 0.00 0.00 0.00 62 1007.8
20200530160031 20 94 3.2 0.0 0.00 0.00 0.00 66 1008.2
20200530154531 19 121 1.6 0.0 0.00 0.00 0.00 67 1008.5
20200530153035 18 95 0.0 0.0 0.00 0.00 0.00 70 1008.2
20200530151541 17 71 3.2 0.0 0.00 0.00 0.00 73 1008.5
20200530150119 17 78 3.2 0.0 0.00 0.00 0.00 74 1008.5
20200530144540 17 40 4.8 0.0 0.00 0.00 0.00 75 1008.9
20200530143034 17 200 4.8 0.0 0.00 0.00 0.00 78 1008.9
20200530141530 16 226 6.4 0.0 0.00 0.00 0.00 86 1008.9
20200530140029 15 37 6.4 0.0 0.00 0.00 0.00 87 1009.3
20200530134535 15 243 3.2 0.0 0.00 0.00 0.00 87 1008.9
20200530133036 15 206 3.2 0.0 0.00 0.00 0.00 88 1008.2
20200530131531 14 206 1.6 0.0 0.00 0.00 0.00 89 1008.2
20200530130059 14 115 1.6 0.0 0.00 0.00 0.00 89 1008.2
20200530124543 13 231 1.6 0.0 0.00 0.00 0.00 88 1008.5
20200530121536 14 101 0.0 0.0 0.00 0.00 0.00 87 1008.5
20200530120039 14 136 1.6 0.0 0.00 0.00 0.00 87 1008.9
20200530114529 14 242 1.6 0.0 0.00 0.00 0.00 87 1008.9
20200530113030 14 147 3.2 0.0 0.00 0.00 0.00 87 1008.9
20200530111532 13 139 4.8 0.0 0.00 0.00 0.00 88 1008.9
20200530110029 14 214 1.6 0.0 0.00 0.00 0.00 87 1008.5
20200530104532 14 151 1.6 0.0 0.00 0.00 0.00 87 1008.5
20200530103055 14 138 1.6 0.0 0.00 0.00 0.00 86 1008.5
20200530101616 14 122 1.6 0.0 0.00 0.00 0.00 86 1008.9
20200530100044 14 161 3.2 0.0 0.00 0.00 0.00 86 1009.3
20200530094602 14 161 3.2 0.0 0.00 0.00 0.00 86 1009.3
20200530093044 14 198 1.6 0.0 0.00 0.00 0.00 85 1009.6
20200530091531 15 121 1.6 0.0 0.00 0.00 0.00 85 1009.3
20200530090034 15 11 1.6 0.0 0.00 0.00 0.00 84 1010.0
20200530084530 15 112 0.0 0.0 0.00 0.00 0.00 84 1010.0
20200530083029 15 183 1.6 0.0 0.00 0.00 0.00 84 1010.3
20200530081528 15 244 0.0 0.0 0.00 0.00 0.00 84 1010.3
20200530080036 15 200 0.0 0.0 0.00 0.00 0.00 84 1010.3
20200530074530 15 164 1.6 0.0 0.00 0.00 0.00 84 1010.3
20200530073033 15 162 0.0 0.0 0.00 0.00 0.00 85 1010.3